Time;durP1;ratioP1;P1;durP2;ratioP2;P2;SDS_P1;SDS_P2;PMS_P1;PMS_P2;Temp;Humidity;BMP_temperature;BMP_pressure;BME280_temperature;BME280_humidity;BME280_pressure;Samples;Min_cycle;Max_cycle;Signal;HPM_P1;HPM_P2
2023/09/25 00:01:33;;;;;;;2.63;1.38;;;9.80;99.90;;;;;;6164245;22;89994;-75
2023/09/25 00:04:00;;;;;;;2.47;1.10;;;9.70;99.90;;;;;;6139476;22;91616;-76
2023/09/25 00:06:26;;;;;;;4.28;1.83;;;9.70;99.90;;;;;;6139360;22;88084;-76
2023/09/25 00:08:52;;;;;;;2.72;1.50;;;9.70;99.90;;;;;;6140350;22;86852;-75
2023/09/25 00:11:17;;;;;;;2.30;1.75;;;9.70;99.90;;;;;;6137341;22;89773;-74
2023/09/25 00:13:43;;;;;;;3.47;1.85;;;9.70;99.90;;;;;;6140724;22;88108;-74
2023/09/25 00:16:13;;;;;;;2.88;1.67;;;9.60;99.90;;;;;;6138873;22;88716;-74
2023/09/25 00:18:39;;;;;;;1.90;1.48;;;9.60;99.90;;;;;;6138595;22;87706;-75
2023/09/25 00:21:04;;;;;;;2.67;1.60;;;9.60;99.90;;;;;;6139272;22;87417;-74
2023/09/25 00:23:30;;;;;;;4.97;1.83;;;9.60;99.90;;;;;;6140118;22;88239;-75
2023/09/25 00:26:03;;;;;;;2.05;1.20;;;9.60;99.90;;;;;;6142580;22;89315;-74
2023/09/25 00:28:29;;;;;;;3.60;2.10;;;9.50;99.90;;;;;;6139882;22;87717;-74
2023/09/25 00:30:55;;;;;;;6.05;1.58;;;9.50;99.90;;;;;;6140121;22;88469;-74
2023/09/25 00:33:20;;;;;;;3.72;1.50;;;9.50;99.90;;;;;;6140893;22;88192;-75
2023/09/25 00:35:46;;;;;;;2.42;1.42;;;9.50;99.90;;;;;;6162763;22;89504;-75
2023/09/25 00:38:13;;;;;;;3.78;1.50;;;9.50;99.90;;;;;;6146980;22;87486;-75
2023/09/25 00:40:38;;;;;;;5.15;1.52;;;9.40;99.90;;;;;;6136995;22;90919;-74
2023/09/25 00:43:05;;;;;;;3.40;1.83;;;9.40;99.90;;;;;;6140995;22;88775;-74
2023/09/25 00:45:41;;;;;;;1.92;1.30;;;9.40;99.90;;;;;;6141137;22;88198;-74
2023/09/25 00:48:19;;;;;;;2.33;1.55;;;9.40;99.90;;;;;;6165401;22;87412;-75
2023/09/25 00:50:45;;;;;;;4.40;1.60;;;9.30;99.90;;;;;;6141213;22;87917;-74
2023/09/25 00:53:11;;;;;;;3.00;1.70;;;9.30;99.90;;;;;;6140587;22;88723;-75
2023/09/25 00:55:37;;;;;;;3.15;2.03;;;9.30;99.90;;;;;;6140267;22;88229;-75
2023/09/25 00:58:06;;;;;;;3.63;1.67;;;9.30;99.90;;;;;;6141812;22;86973;-75
2023/09/25 01:00:35;;;;;;;4.38;2.00;;;9.30;99.90;;;;;;6139176;22;90644;-75
2023/09/25 01:03:01;;;;;;;2.42;1.65;;;9.20;99.90;;;;;;6157316;22;90019;-75
2023/09/25 01:05:27;;;;;;;4.18;2.20;;;9.20;99.90;;;;;;6164369;22;91353;-75
2023/09/25 01:07:53;;;;;;;3.05;1.55;;;9.20;99.90;;;;;;6142107;22;87376;-75
2023/09/25 01:10:22;;;;;;;3.88;1.90;;;9.20;99.90;;;;;;6140634;22;88081;-74
2023/09/25 01:12:49;;;;;;;2.90;1.90;;;9.20;99.90;;;;;;6141049;22;87449;-75
2023/09/25 01:15:15;;;;;;;3.10;1.60;;;9.20;99.90;;;;;;6140689;22;88323;-75
2023/09/25 01:17:41;;;;;;;5.80;1.85;;;9.20;99.90;;;;;;6138983;22;88240;-75
2023/09/25 01:20:14;;;;;;;2.83;1.52;;;9.10;99.90;;;;;;6139352;22;87825;-73
2023/09/25 01:22:45;;;;;;;2.60;1.70;;;9.10;99.90;;;;;;6140859;22;87844;-75
2023/09/25 01:25:11;;;;;;;4.82;1.45;;;9.10;99.90;;;;;;6141536;22;87829;-74
2023/09/25 01:27:44;;;;;;;2.92;1.88;;;9.10;99.90;;;;;;6139523;22;87675;-75
2023/09/25 01:30:11;;;;;;;4.00;1.67;;;9.10;99.90;;;;;;6158476;22;90582;-74
2023/09/25 01:32:37;;;;;;;3.15;1.70;;;9.10;99.90;;;;;;6140406;22;87693;-75
2023/09/25 01:35:11;;;;;;;2.65;1.50;;;9.00;99.90;;;;;;6140837;22;87722;-74
2023/09/25 01:37:37;;;;;;;1.83;1.17;;;9.10;99.90;;;;;;6141325;22;87510;-75
2023/09/25 01:40:12;;;;;;;6.00;2.03;;;9.00;99.90;;;;;;6165200;22;88478;-75
2023/09/25 01:42:39;;;;;;;3.25;1.90;;;9.00;99.90;;;;;;6139084;22;96407;-74
2023/09/25 01:45:05;;;;;;;4.35;1.80;;;9.00;99.90;;;;;;6141166;22;87366;-74
2023/09/25 01:47:31;;;;;;;3.30;1.75;;;9.00;99.90;;;;;;6141790;22;86445;-75
2023/09/25 01:49:57;;;;;;;2.55;1.77;;;9.00;99.90;;;;;;6139663;22;87806;-74
2023/09/25 01:52:22;;;;;;;4.70;1.98;;;9.00;99.90;;;;;;6140781;22;87774;-75
2023/09/25 01:54:50;;;;;;;4.13;1.95;;;8.90;99.90;;;;;;6139150;22;88634;-74
2023/09/25 01:57:16;;;;;;;3.47;2.17;;;8.90;99.90;;;;;;6141231;22;88044;-74
2023/09/25 01:59:42;;;;;;;5.93;1.50;;;8.90;99.90;;;;;;6163549;22;89800;-74
2023/09/25 02:02:07;;;;;;;3.72;2.00;;;8.90;99.90;;;;;;6140611;22;88513;-74
2023/09/25 02:04:33;;;;;;;9.65;1.95;;;8.90;99.90;;;;;;6140094;22;87742;-74
2023/09/25 02:06:58;;;;;;;4.93;2.17;;;8.80;99.90;;;;;;6140719;22;87748;-74
2023/09/25 02:09:24;;;;;;;3.42;1.77;;;8.80;99.90;;;;;;6141007;22;87657;-74
2023/09/25 02:11:50;;;;;;;4.75;1.75;;;8.80;99.90;;;;;;6140426;22;87408;-74
2023/09/25 02:14:15;;;;;;;3.80;2.20;;;8.80;99.90;;;;;;6140645;22;87790;-75
2023/09/25 02:16:41;;;;;;;3.90;1.70;;;8.80;99.90;;;;;;6138905;22;87811;-74
2023/09/25 02:19:07;;;;;;;4.03;1.70;;;8.80;99.90;;;;;;6140716;22;88542;-75
2023/09/25 02:21:33;;;;;;;5.88;1.92;;;8.70;99.90;;;;;;6141077;22;92494;-74
2023/09/25 02:23:58;;;;;;;4.22;1.85;;;8.80;99.90;;;;;;6141563;22;88524;-73
2023/09/25 02:26:26;;;;;;;3.80;1.52;;;8.70;99.90;;;;;;6141390;22;87459;-74
2023/09/25 02:28:52;;;;;;;4.18;1.70;;;8.70;99.90;;;;;;6139642;22;87759;-74
2023/09/25 02:31:18;;;;;;;3.10;1.63;;;8.70;99.90;;;;;;6139211;22;92475;-74
2023/09/25 02:33:44;;;;;;;2.47;1.60;;;8.70;99.90;;;;;;6141161;22;87753;-74
2023/09/25 02:36:10;;;;;;;2.30;1.50;;;8.70;99.90;;;;;;6141922;22;87075;-74
2023/09/25 02:38:36;;;;;;;4.30;1.92;;;8.70;99.90;;;;;;6141657;22;87775;-75
2023/09/25 02:41:01;;;;;;;3.42;1.95;;;8.60;99.90;;;;;;6138453;22;91105;-74
2023/09/25 02:43:27;;;;;;;3.22;1.77;;;8.70;99.90;;;;;;6138910;22;88076;-74
2023/09/25 02:45:53;;;;;;;3.97;1.70;;;8.60;99.90;;;;;;6139696;22;88469;-74
2023/09/25 02:48:22;;;;;;;3.28;1.60;;;8.60;99.90;;;;;;6141235;22;87368;-74
2023/09/25 02:50:48;;;;;;;2.70;1.65;;;8.60;99.90;;;;;;6141171;22;89371;-74
2023/09/25 02:53:15;;;;;;;2.55;1.65;;;8.60;99.90;;;;;;6148491;22;91159;-74
2023/09/25 02:55:41;;;;;;;3.75;1.73;;;8.60;99.90;;;;;;6141100;22;87464;-74
2023/09/25 02:58:07;;;;;;;3.28;1.52;;;8.60;99.90;;;;;;6142080;22;87960;-74
2023/09/25 03:00:32;;;;;;;3.80;1.73;;;8.50;99.90;;;;;;6171532;22;95231;-74
2023/09/25 03:02:58;;;;;;;5.97;2.13;;;8.50;99.90;;;;;;6171590;22;87657;-74
2023/09/25 03:05:24;;;;;;;2.55;1.70;;;8.50;99.90;;;;;;6170347;22;87705;-74
2023/09/25 03:07:50;;;;;;;5.50;1.83;;;8.50;99.90;;;;;;6170788;22;88342;-74
2023/09/25 03:10:16;;;;;;;2.33;1.42;;;8.40;99.90;;;;;;6168846;22;90465;-74
2023/09/25 03:12:42;;;;;;;4.75;1.73;;;8.50;99.90;;;;;;6170071;22;91684;-74
2023/09/25 03:15:08;;;;;;;1.90;1.50;;;8.40;99.90;;;;;;6163505;22;87802;-75
2023/09/25 03:17:35;;;;;;;3.63;1.35;;;8.40;99.90;;;;;;6140566;22;87519;-74
2023/09/25 03:20:04;;;;;;;4.75;1.63;;;8.40;99.90;;;;;;6137817;22;88567;-74
2023/09/25 03:22:30;;;;;;;3.42;1.83;;;8.40;99.90;;;;;;6138598;22;87879;-75
2023/09/25 03:24:56;;;;;;;5.40;2.10;;;8.40;99.90;;;;;;6141770;22;86781;-74
2023/09/25 03:27:21;;;;;;;3.03;1.77;;;8.40;99.90;;;;;;6140343;22;87739;-74
2023/09/25 03:29:47;;;;;;;5.18;1.95;;;8.40;99.90;;;;;;6141118;22;88926;-75
2023/09/25 03:32:13;;;;;;;2.97;2.10;;;8.40;99.90;;;;;;6140327;22;94707;-74
2023/09/25 03:34:40;;;;;;;6.22;2.38;;;8.40;99.90;;;;;;6141020;22;87487;-74
2023/09/25 03:37:05;;;;;;;6.47;1.98;;;8.30;99.90;;;;;;6141764;22;87361;-75
2023/09/25 03:39:31;;;;;;;3.60;2.20;;;8.40;99.90;;;;;;6165300;22;91928;-74
2023/09/25 03:41:57;;;;;;;3.35;2.10;;;8.30;99.90;;;;;;6138660;22;88718;-74
2023/09/25 03:44:22;;;;;;;7.57;2.33;;;8.30;99.90;;;;;;6140505;22;87517;-74
2023/09/25 03:46:48;;;;;;;5.78;2.35;;;8.30;99.90;;;;;;6148545;22;87757;-74
2023/09/25 03:49:14;;;;;;;4.18;1.92;;;8.30;99.90;;;;;;6169501;22;87874;-74
2023/09/25 03:51:39;;;;;;;3.60;2.00;;;8.30;99.90;;;;;;6170670;22;91340;-75
2023/09/25 03:54:05;;;;;;;3.20;2.30;;;8.40;99.90;;;;;;6171751;22;88067;-75
2023/09/25 03:56:31;;;;;;;4.80;1.98;;;8.30;99.90;;;;;;6169021;22;89414;-76
2023/09/25 03:58:57;;;;;;;3.70;1.65;;;8.30;99.90;;;;;;6168871;22;91098;-74
2023/09/25 04:01:25;;;;;;;3.38;1.98;;;8.40;99.90;;;;;;6172298;22;87577;-74
2023/09/25 04:03:51;;;;;;;5.10;1.75;;;8.40;99.90;;;;;;6171850;22;87632;-74
2023/09/25 04:06:18;;;;;;;4.60;2.38;;;8.40;99.90;;;;;;6168279;22;88920;-74
2023/09/25 04:08:44;;;;;;;3.70;2.08;;;8.40;99.90;;;;;;6171015;22;89150;-75
2023/09/25 04:11:10;;;;;;;3.03;1.73;;;8.40;99.90;;;;;;6170307;22;88552;-74
2023/09/25 04:13:36;;;;;;;3.35;1.77;;;8.40;99.90;;;;;;6171261;22;87092;-75
2023/09/25 04:16:02;;;;;;;7.47;2.13;;;8.40;99.90;;;;;;6169989;22;88609;-75
2023/09/25 04:18:29;;;;;;;5.57;2.15;;;8.40;99.90;;;;;;6169862;22;89971;-75
2023/09/25 04:20:55;;;;;;;4.05;2.33;;;8.40;99.90;;;;;;6170706;22;88433;-75
2023/09/25 04:23:22;;;;;;;5.13;2.20;;;8.40;99.90;;;;;;6171797;22;87614;-74
2023/09/25 04:25:51;;;;;;;4.45;2.22;;;8.40;99.90;;;;;;6170667;22;87329;-74
2023/09/25 04:28:17;;;;;;;4.95;2.30;;;8.40;99.90;;;;;;6170146;22;88882;-74
2023/09/25 04:30:43;;;;;;;4.28;2.70;;;8.40;99.90;;;;;;6169726;22;91221;-74
2023/09/25 04:33:12;;;;;;;5.70;2.45;;;8.40;99.90;;;;;;6169819;22;87628;-77
2023/09/25 04:35:37;;;;;;;5.78;2.58;;;8.40;99.90;;;;;;6193317;22;90627;-74
2023/09/25 04:38:03;;;;;;;3.75;2.20;;;8.40;99.90;;;;;;6169939;22;87901;-75
2023/09/25 04:40:32;;;;;;;4.45;2.05;;;8.40;99.90;;;;;;6168551;22;87649;-74
2023/09/25 04:43:00;;;;;;;4.55;2.30;;;8.40;99.90;;;;;;6169250;22;87359;-74
2023/09/25 04:45:26;;;;;;;5.50;2.38;;;8.50;99.90;;;;;;6169880;22;88494;-74
2023/09/25 04:47:55;;;;;;;3.95;1.75;;;8.50;99.90;;;;;;6167921;22;91607;-74
2023/09/25 04:50:23;;;;;;;3.53;1.73;;;8.50;99.90;;;;;;6166741;22;91260;-74
2023/09/25 04:52:48;;;;;;;6.15;2.10;;;8.60;99.90;;;;;;6169670;22;87445;-74
2023/09/25 04:55:15;;;;;;;3.85;2.20;;;8.60;99.90;;;;;;6168364;22;90066;-74
2023/09/25 04:57:44;;;;;;;4.57;1.88;;;8.60;99.90;;;;;;6170568;22;88089;-74
2023/09/25 05:00:26;;;;;;;3.22;2.20;;;8.60;99.90;;;;;;6170153;22;88817;-74
2023/09/25 05:02:53;;;;;;;2.92;2.13;;;8.70;99.90;;;;;;6169062;22;87551;-76
2023/09/25 05:05:19;;;;;;;3.35;1.70;;;8.70;99.90;;;;;;6167535;22;90390;-75
2023/09/25 05:07:49;;;;;;;3.00;1.65;;;8.70;99.90;;;;;;6168268;22;90634;-75
2023/09/25 05:10:25;;;;;;;4.53;2.50;;;8.70;99.90;;;;;;6167526;22;89942;-76
2023/09/25 05:12:54;;;;;;;4.57;2.00;;;8.70;99.90;;;;;;6171595;22;87909;-75
2023/09/25 05:15:20;;;;;;;7.60;2.30;;;8.70;99.90;;;;;;6168598;22;88700;-76
2023/09/25 05:17:46;;;;;;;3.65;2.00;;;8.70;99.90;;;;;;6168383;22;91449;-75
2023/09/25 05:20:22;;;;;;;4.15;2.70;;;8.70;99.90;;;;;;6167690;22;88538;-76
2023/09/25 05:22:53;;;;;;;3.65;1.70;;;8.70;99.90;;;;;;6169504;22;87751;-76
2023/09/25 05:25:20;;;;;;;3.95;2.28;;;8.70;99.90;;;;;;6168021;22;87797;-75
2023/09/25 05:27:48;;;;;;;5.10;2.40;;;8.70;99.90;;;;;;6171120;22;87895;-75
2023/09/25 05:30:14;;;;;;;6.95;2.05;;;8.70;99.90;;;;;;6169155;22;90916;-75
2023/09/25 05:32:41;;;;;;;6.05;2.30;;;8.70;99.90;;;;;;6172617;22;87743;-76
2023/09/25 05:35:08;;;;;;;4.95;2.50;;;8.70;99.90;;;;;;6167750;22;89933;-76
2023/09/25 05:37:34;;;;;;;6.22;2.10;;;8.70;99.90;;;;;;6169815;22;88479;-76
2023/09/25 05:40:01;;;;;;;3.78;2.20;;;8.70;99.90;;;;;;6171251;22;88564;-76
2023/09/25 05:42:27;;;;;;;4.47;2.30;;;8.70;99.90;;;;;;6171128;22;87902;-75
2023/09/25 05:44:52;;;;;;;4.55;2.22;;;8.80;99.90;;;;;;6170588;22;88646;-76
2023/09/25 05:47:18;;;;;;;4.80;2.58;;;8.80;99.90;;;;;;6171583;22;87482;-76
2023/09/25 05:49:44;;;;;;;5.85;2.72;;;8.80;99.90;;;;;;6170488;22;89362;-76
2023/09/25 05:52:09;;;;;;;10.77;2.40;;;8.80;99.90;;;;;;6171929;22;86709;-75
2023/09/25 05:54:35;;;;;;;6.03;1.95;;;8.90;99.90;;;;;;6172516;22;90400;-75
2023/09/25 05:57:01;;;;;;;5.75;2.60;;;8.90;99.90;;;;;;6173392;22;87840;-75
2023/09/25 05:59:27;;;;;;;10.07;2.78;;;8.90;99.90;;;;;;6172510;22;88551;-75
2023/09/25 06:01:53;;;;;;;5.28;2.25;;;9.00;99.90;;;;;;6173211;22;87606;-74
2023/09/25 06:04:19;;;;;;;3.72;2.38;;;9.00;99.90;;;;;;6173284;22;87557;-76
2023/09/25 06:06:44;;;;;;;9.85;2.35;;;9.10;99.90;;;;;;6172282;22;91470;-75
2023/09/25 06:09:15;;;;;;;10.85;3.17;;;9.10;99.90;;;;;;6171210;22;91297;-75
2023/09/25 06:11:42;;;;;;;7.10;2.47;;;9.10;99.90;;;;;;6173497;22;87870;-75
2023/09/25 06:14:09;;;;;;;5.13;2.72;;;9.20;99.90;;;;;;6169614;22;90206;-74
2023/09/25 06:16:39;;;;;;;8.23;2.53;;;9.20;99.90;;;;;;6172282;22;88093;-74
2023/09/25 06:19:05;;;;;;;8.57;2.78;;;9.30;99.90;;;;;;6173051;22;90376;-76
2023/09/25 06:21:34;;;;;;;11.98;3.10;;;9.40;99.90;;;;;;6172803;22;87684;-75
2023/09/25 06:24:00;;;;;;;7.38;3.35;;;9.40;99.90;;;;;;6174190;22;88485;-76
2023/09/25 06:26:31;;;;;;;6.28;2.92;;;9.50;99.90;;;;;;6173341;22;88965;-76
2023/09/25 06:28:58;;;;;;;12.80;3.00;;;9.60;99.90;;;;;;6172807;22;88179;-75
2023/09/25 06:31:24;;;;;;;14.05;2.80;;;9.70;99.90;;;;;;6172759;22;87981;-75
2023/09/25 06:33:55;;;;;;;12.15;3.78;;;9.80;99.90;;;;;;6174065;22;87658;-75
2023/09/25 06:36:22;;;;;;;7.80;2.38;;;9.90;99.90;;;;;;6171696;22;91652;-76
2023/09/25 06:38:48;;;;;;;7.47;2.88;;;9.90;99.90;;;;;;6171030;22;91295;-76
2023/09/25 06:41:14;;;;;;;7.32;2.28;;;10.00;99.90;;;;;;6173215;22;86765;-75
2023/09/25 06:43:39;;;;;;;6.00;2.08;;;10.10;99.90;;;;;;6171527;22;89152;-75
2023/09/25 06:46:05;;;;;;;7.10;2.78;;;10.20;99.90;;;;;;6172915;22;90036;-76
2023/09/25 06:48:34;;;;;;;10.13;3.10;;;10.30;99.90;;;;;;6176410;22;88582;-75
2023/09/25 06:51:00;;;;;;;8.20;2.33;;;10.40;99.90;;;;;;6177418;22;87467;-74
2023/09/25 06:53:26;;;;;;;5.47;2.40;;;10.50;99.90;;;;;;6173598;22;89360;-75
2023/09/25 06:55:52;;;;;;;10.77;2.53;;;10.60;99.90;;;;;;6173575;22;88502;-75
2023/09/25 06:58:18;;;;;;;6.10;2.45;;;10.80;99.90;;;;;;6176708;22;88786;-79
2023/09/25 07:00:45;;;;;;;6.55;2.63;;;10.90;99.90;;;;;;6177742;22;88059;-75
2023/09/25 07:03:11;;;;;;;9.30;2.55;;;11.00;99.90;;;;;;6174812;22;90407;-75
2023/09/25 07:05:36;;;;;;;8.38;2.58;;;11.20;99.90;;;;;;6176971;22;87919;-74
2023/09/25 07:08:03;;;;;;;5.63;2.30;;;11.30;99.90;;;;;;6176555;22;88097;-74
2023/09/25 07:10:30;;;;;;;7.13;2.35;;;11.50;99.90;;;;;;6175368;22;87410;-75
2023/09/25 07:12:56;;;;;;;7.43;2.72;;;11.60;99.90;;;;;;6174198;22;90886;-76
2023/09/25 07:15:23;;;;;;;6.47;2.22;;;11.70;99.90;;;;;;6173375;22;90162;-75
2023/09/25 07:17:48;;;;;;;10.27;3.30;;;11.90;99.90;;;;;;6174265;22;90019;-76
2023/09/25 07:20:14;;;;;;;4.85;2.30;;;12.00;99.90;;;;;;6173640;22;87426;-76
2023/09/25 07:22:40;;;;;;;5.13;2.05;;;12.20;99.90;;;;;;6173172;22;87575;-75
2023/09/25 07:25:06;;;;;;;6.82;1.92;;;12.30;99.90;;;;;;6175912;22;88525;-75
2023/09/25 07:27:34;;;;;;;5.28;2.00;;;12.50;99.90;;;;;;6175454;22;87497;-75
2023/09/25 07:30:05;;;;;;;4.43;1.90;;;12.60;99.90;;;;;;6177097;22;86965;-76
2023/09/25 07:32:32;;;;;;;4.10;1.70;;;12.70;99.90;;;;;;6174325;22;89501;-76
2023/09/25 07:34:58;;;;;;;5.15;1.88;;;12.90;99.90;;;;;;6173226;22;87660;-76
2023/09/25 07:37:23;;;;;;;4.90;2.00;;;13.00;99.90;;;;;;6169075;22;89821;-75
2023/09/25 07:39:49;;;;;;;8.73;2.38;;;13.10;99.90;;;;;;6174107;22;87598;-76
2023/09/25 07:42:15;;;;;;;6.07;1.80;;;13.30;99.90;;;;;;6175508;22;87564;-76
2023/09/25 07:44:42;;;;;;;3.83;1.80;;;13.40;99.90;;;;;;6171605;22;88254;-77
2023/09/25 07:47:10;;;;;;;5.65;1.83;;;13.50;99.90;;;;;;6169658;22;90937;-75
2023/09/25 07:49:40;;;;;;;7.15;1.88;;;13.70;99.90;;;;;;6173261;22;86978;-75
2023/09/25 07:52:15;;;;;;;5.88;1.80;;;13.80;99.90;;;;;;6173692;22;87274;-75
2023/09/25 07:54:48;;;;;;;2.78;1.50;;;13.90;99.90;;;;;;6171968;22;93671;-75
2023/09/25 07:57:15;;;;;;;3.72;1.67;;;14.10;99.50;;;;;;6173634;22;87874;-75
2023/09/25 07:59:42;;;;;;;6.03;1.40;;;14.10;99.90;;;;;;6171668;22;87399;-75
2023/09/25 08:02:08;;;;;;;6.03;1.48;;;14.30;99.90;;;;;;6172525;22;94088;-75
2023/09/25 08:04:35;;;;;;;6.15;1.40;;;14.40;99.80;;;;;;6173078;22;88238;-75
2023/09/25 08:07:02;;;;;;;4.80;1.60;;;14.50;99.00;;;;;;6173176;22;88412;-75
2023/09/25 08:09:28;;;;;;;3.08;1.30;;;14.70;98.90;;;;;;6172342;22;88427;-75
2023/09/25 08:11:54;;;;;;;4.32;1.70;;;14.80;99.10;;;;;;6171682;22;89814;-76
2023/09/25 08:14:23;;;;;;;5.63;1.70;;;15.00;99.40;;;;;;6171143;22;88749;-76
2023/09/25 08:16:49;;;;;;;3.53;1.40;;;15.10;98.10;;;;;;6171891;22;89135;-75
2023/09/25 08:19:17;;;;;;;3.50;1.30;;;15.30;98.40;;;;;;6172537;22;86970;-76
2023/09/25 08:21:44;;;;;;;5.13;1.45;;;15.40;97.60;;;;;;6172548;22;87262;-76
2023/09/25 08:24:09;;;;;;;3.88;1.40;;;15.60;96.60;;;;;;6173609;22;88393;-76
2023/09/25 08:26:35;;;;;;;5.05;1.92;;;15.80;96.80;;;;;;6171263;22;92000;-76
2023/09/25 08:29:05;;;;;;;3.47;1.10;;;15.90;95.70;;;;;;6172032;22;87825;-76
2023/09/25 08:31:31;;;;;;;3.58;1.35;;;16.10;95.30;;;;;;6171868;22;89107;-76
2023/09/25 08:33:57;;;;;;;4.40;1.52;;;16.20;94.50;;;;;;6172195;22;90994;-76
2023/09/25 08:36:23;;;;;;;6.70;1.88;;;16.40;95.40;;;;;;6172468;22;90326;-76
2023/09/25 08:38:49;;;;;;;4.38;1.48;;;16.50;95.10;;;;;;6174430;22;87901;-76
2023/09/25 08:41:17;;;;;;;2.80;1.17;;;16.70;94.80;;;;;;6171057;22;89153;-76
2023/09/25 08:43:44;;;;;;;4.88;1.13;;;16.80;93.50;;;;;;6171425;22;92556;-76
2023/09/25 08:46:11;;;;;;;2.75;1.00;;;16.90;93.70;;;;;;6198041;22;91023;-76
2023/09/25 08:48:37;;;;;;;3.35;1.10;;;17.10;94.20;;;;;;6172375;22;87583;-76
2023/09/25 08:51:04;;;;;;;6.63;0.88;;;17.30;93.90;;;;;;6170847;22;90042;-77
2023/09/25 08:53:30;;;;;;;2.40;1.38;;;17.40;93.10;;;;;;6173342;22;88859;-76
2023/09/25 08:55:56;;;;;;;2.78;1.10;;;17.60;92.80;;;;;;6174424;22;88755;-76
2023/09/25 08:58:24;;;;;;;1.88;0.98;;;17.80;92.00;;;;;;6171869;22;87831;-76
2023/09/25 09:00:50;;;;;;;3.08;0.90;;;17.90;92.40;;;;;;6173891;22;89042;-77
2023/09/25 09:03:16;;;;;;;3.97;0.95;;;18.10;91.00;;;;;;6172529;22;91205;-77
2023/09/25 09:05:42;;;;;;;4.60;0.90;;;18.20;91.70;;;;;;6172036;22;92145;-77
2023/09/25 09:08:10;;;;;;;4.78;1.30;;;18.40;92.20;;;;;;6163139;22;87102;-77
2023/09/25 09:10:38;;;;;;;1.42;0.98;;;18.60;91.50;;;;;;6163833;22;90795;-76
2023/09/25 09:13:09;;;;;;;2.35;0.77;;;18.70;91.20;;;;;;6194026;22;88188;-76
2023/09/25 09:15:36;;;;;;;2.92;0.90;;;18.80;88.50;;;;;;6174940;22;92275;-77
2023/09/25 09:18:22;;;;;;;2.72;0.80;;;19.00;90.50;;;;;;6176113;22;87241;-77
2023/09/25 09:20:48;;;;;;;3.65;0.80;;;19.20;89.40;;;;;;6179628;22;87415;-77
2023/09/25 09:23:15;;;;;;;1.67;0.80;;;19.30;85.60;;;;;;6172869;22;91698;-77
2023/09/25 09:25:47;;;;;;;2.28;1.08;;;19.40;88.60;;;;;;6175326;22;87913;-77
2023/09/25 09:28:13;;;;;;;1.53;0.73;;;19.50;87.30;;;;;;6173887;22;87797;-77
2023/09/25 09:30:41;;;;;;;5.55;1.75;;;19.60;82.80;;;;;;6176018;22;87453;-77
2023/09/25 09:33:08;;;;;;;3.90;1.35;;;19.70;84.10;;;;;;6175461;22;88023;-76
2023/09/25 09:35:34;;;;;;;2.90;0.80;;;19.80;84.70;;;;;;6206563;22;87494;-82
2023/09/25 09:38:08;;;;;;;1.63;0.80;;;19.90;85.80;;;;;;6187783;22;87580;-80
2023/09/25 09:40:34;;;;;;;4.65;1.15;;;20.00;85.20;;;;;;6187958;22;90063;-80
2023/09/25 09:43:03;;;;;;;3.30;0.80;;;20.20;86.20;;;;;;6184730;22;87471;-81
2023/09/25 09:45:30;;;;;;;2.35;1.00;;;20.30;84.10;;;;;;6182883;22;87919;-78
2023/09/25 09:47:56;;;;;;;4.13;0.70;;;20.40;84.30;;;;;;6172824;22;87476;-77
2023/09/25 09:50:27;;;;;;;5.65;1.00;;;20.50;82.70;;;;;;6174103;22;90164;-77
2023/09/25 09:52:54;;;;;;;2.15;0.65;;;20.60;83.30;;;;;;6174849;22;91579;-77
2023/09/25 09:55:21;;;;;;;2.20;0.80;;;20.70;81.90;;;;;;6175722;22;87714;-78
2023/09/25 09:57:49;;;;;;;1.55;0.80;;;20.80;79.70;;;;;;6178323;22;86694;-77
2023/09/25 10:00:17;;;;;;;1.83;0.60;;;20.90;78.30;;;;;;6173362;22;90789;-77
2023/09/25 10:02:45;;;;;;;4.97;0.95;;;21.00;80.90;;;;;;6172126;22;88215;-78
2023/09/25 10:05:13;;;;;;;2.95;0.80;;;21.10;78.10;;;;;;6170416;22;88537;-77
2023/09/25 10:08:10;;;;;;;1.60;0.82;;;21.20;79.30;;;;;;6170965;22;87448;-77
2023/09/25 10:10:38;;;;;;;3.20;0.93;;;21.30;79.70;;;;;;6171504;22;90205;-78
2023/09/25 10:13:08;;;;;;;2.83;1.10;;;21.50;80.20;;;;;;6174502;22;87490;-76
2023/09/25 10:15:39;;;;;;;5.38;2.00;;;21.60;76.60;;;;;;6172026;22;92785;-77
2023/09/25 10:18:06;;;;;;;3.58;1.92;;;21.70;75.10;;;;;;6173946;22;87530;-76
2023/09/25 10:20:40;;;;;;;3.10;1.20;;;21.70;76.30;;;;;;6172693;22;87442;-78
2023/09/25 10:23:06;;;;;;;3.10;1.63;;;21.70;73.10;;;;;;6165732;22;90717;-77
2023/09/25 10:25:46;;;;;;;5.10;1.83;;;21.70;73.00;;;;;;6189238;22;87612;-79
2023/09/25 10:28:38;;;;;;;2.40;1.25;;;21.80;74.70;;;;;;6213202;22;87210;-80
2023/09/25 10:31:18;;;;;;;3.90;1.60;;;21.90;75.00;;;;;;6197002;22;89755;-82
2023/09/25 10:33:59;;;;;;;7.43;1.70;;;22.00;73.90;;;;;;6207136;22;93193;-81
2023/09/25 10:36:40;;;;;;;4.90;1.30;;;22.10;76.50;;;;;;6204530;22;86956;-78
2023/09/25 10:39:13;;;;;;;3.20;1.48;;;22.30;75.90;;;;;;6173912;22;87513;-77
2023/09/25 10:41:39;;;;;;;4.85;1.00;;;22.40;76.50;;;;;;6173937;22;90366;-79
2023/09/25 10:44:05;;;;;;;4.90;1.45;;;22.60;76.80;;;;;;6167542;22;88481;-79
2023/09/25 10:46:31;;;;;;;2.28;0.90;;;22.70;74.70;;;;;;6144517;22;88560;-78
2023/09/25 10:48:57;;;;;;;2.78;0.80;;;22.70;69.70;;;;;;6146508;22;87145;-77
2023/09/25 10:51:23;;;;;;;4.90;0.90;;;22.80;72.60;;;;;;6169638;22;90198;-77
2023/09/25 10:53:49;;;;;;;2.63;0.85;;;22.80;70.50;;;;;;6144980;22;87605;-79
2023/09/25 10:56:16;;;;;;;2.55;0.88;;;22.90;72.80;;;;;;6151695;22;91016;-79
2023/09/25 10:58:47;;;;;;;7.40;1.67;;;23.00;70.30;;;;;;6167805;22;87824;-79
2023/09/25 11:01:14;;;;;;;2.58;1.10;;;23.00;70.20;;;;;;6144009;22;89765;-78
2023/09/25 11:03:40;;;;;;;2.20;1.10;;;23.20;73.30;;;;;;6145815;22;88950;-79
2023/09/25 11:06:07;;;;;;;2.95;0.80;;;23.30;69.80;;;;;;6142761;22;90000;-77
2023/09/25 11:08:34;;;;;;;1.92;0.85;;;23.40;72.00;;;;;;6143590;22;87378;-79
2023/09/25 11:11:02;;;;;;;3.17;0.80;;;23.50;72.50;;;;;;6141306;22;92416;-79
2023/09/25 11:13:28;;;;;;;3.72;1.00;;;23.60;70.00;;;;;;6141908;22;92509;-77
2023/09/25 11:15:54;;;;;;;2.40;1.10;;;23.80;70.70;;;;;;6141386;22;94893;-79
2023/09/25 11:18:19;;;;;;;3.30;1.20;;;23.90;68.40;;;;;;6162917;22;92454;-78
2023/09/25 11:20:45;;;;;;;3.60;0.95;;;23.90;67.20;;;;;;6138090;22;93535;-79
2023/09/25 11:23:15;;;;;;;2.67;0.90;;;24.00;69.20;;;;;;6138224;22;94477;-79
2023/09/25 11:25:46;;;;;;;2.30;0.90;;;24.30;70.10;;;;;;6139502;22;95715;-78
2023/09/25 11:28:13;;;;;;;3.22;1.00;;;24.50;66.50;;;;;;6138847;22;92547;-82
2023/09/25 11:30:41;;;;;;;2.40;0.85;;;24.40;64.10;;;;;;6145390;22;92641;-84
2023/09/25 11:33:18;;;;;;;8.55;1.40;;;24.50;66.50;;;;;;6148057;22;93956;-84
2023/09/25 11:35:44;;;;;;;2.35;1.15;;;24.60;65.80;;;;;;6143176;22;92945;-83
2023/09/25 11:38:17;;;;;;;2.10;1.10;;;24.60;64.30;;;;;;6146710;22;91931;-82
2023/09/25 11:40:45;;;;;;;3.63;1.00;;;24.60;63.30;;;;;;6145883;22;92652;-81
2023/09/25 11:43:11;;;;;;;1.13;0.70;;;24.70;65.60;;;;;;6140861;22;93029;-82
2023/09/25 11:45:38;;;;;;;5.85;1.10;;;24.70;63.70;;;;;;6141005;22;93560;-83
2023/09/25 11:48:04;;;;;;;2.00;0.70;;;24.70;67.30;;;;;;6140330;22;92673;-83
2023/09/25 11:50:33;;;;;;;4.53;0.80;;;24.80;64.00;;;;;;6139551;22;92580;-83
2023/09/25 11:52:59;;;;;;;3.30;0.90;;;25.00;64.30;;;;;;6140217;22;92806;-85
2023/09/25 11:55:24;;;;;;;1.67;0.80;;;25.00;63.90;;;;;;6137743;22;93281;-83
2023/09/25 11:57:50;;;;;;;1.98;0.80;;;25.20;64.60;;;;;;6140415;22;92515;-84
2023/09/25 12:00:18;;;;;;;1.85;0.70;;;25.10;63.00;;;;;;6139256;22;92811;-83
2023/09/25 12:02:46;;;;;;;2.38;0.68;;;25.20;61.80;;;;;;6140249;22;93024;-83
2023/09/25 12:05:16;;;;;;;1.38;0.70;;;25.20;63.20;;;;;;6137605;22;92715;-83
2023/09/25 12:07:43;;;;;;;2.00;0.70;;;25.30;62.60;;;;;;6137196;22;92917;-82
2023/09/25 12:10:12;;;;;;;2.95;0.68;;;25.30;59.80;;;;;;6138385;22;94110;-81
2023/09/25 12:12:39;;;;;;;5.25;1.02;;;25.40;61.90;;;;;;6140279;22;93626;-82
2023/09/25 12:15:07;;;;;;;2.25;0.70;;;25.50;57.30;;;;;;6139995;22;92649;-83
2023/09/25 12:17:34;;;;;;;3.38;0.82;;;25.60;58.50;;;;;;6157512;22;92638;-83
2023/09/25 12:20:01;;;;;;;2.45;0.85;;;25.80;59.10;;;;;;6164536;22;92397;-83
2023/09/25 12:22:30;;;;;;;2.42;0.80;;;25.90;58.30;;;;;;6137616;22;96637;-82
2023/09/25 12:24:56;;;;;;;2.45;0.80;;;25.90;57.50;;;;;;6165119;22;94748;-82
2023/09/25 12:27:24;;;;;;;4.70;1.30;;;25.90;58.00;;;;;;6140803;22;92279;-81
2023/09/25 12:29:49;;;;;;;1.92;0.70;;;26.10;58.70;;;;;;6138135;22;93033;-81
2023/09/25 12:32:15;;;;;;;3.00;0.90;;;26.20;58.40;;;;;;6139628;22;93147;-83
2023/09/25 12:34:41;;;;;;;2.47;1.00;;;26.10;57.60;;;;;;6138472;22;93670;-82
2023/09/25 12:37:07;;;;;;;2.25;0.80;;;26.00;58.60;;;;;;6137818;22;92600;-80
2023/09/25 12:39:34;;;;;;;1.30;0.85;;;26.20;57.20;;;;;;6137857;22;93048;-80
2023/09/25 12:42:00;;;;;;;2.38;0.90;;;26.30;58.80;;;;;;6138416;22;93422;-80
2023/09/25 12:44:26;;;;;;;4.18;0.90;;;26.40;57.70;;;;;;6138882;22;96706;-83
2023/09/25 12:46:52;;;;;;;1.70;0.93;;;26.40;54.90;;;;;;6165086;22;92689;-82
2023/09/25 12:49:19;;;;;;;4.10;0.70;;;26.40;54.60;;;;;;6140605;22;92758;-82
2023/09/25 12:51:46;;;;;;;2.95;0.80;;;26.50;55.00;;;;;;6140712;22;92837;-81
2023/09/25 12:54:12;;;;;;;3.97;1.00;;;26.60;54.60;;;;;;6136644;22;92433;-78